createdAt,value
2023-05-14T00:01:04.091Z,94137.75
2023-05-14T00:03:31.455Z,94140.75
2023-05-14T00:05:58.467Z,94128.97
2023-05-14T00:08:25.322Z,94126.47
2023-05-14T00:10:52.449Z,94126.53
2023-05-14T00:13:19.263Z,94121.25
2023-05-14T00:15:45.973Z,94128.66
2023-05-14T00:18:12.756Z,94123.13
2023-05-14T00:20:39.661Z,94115.97
2023-05-14T00:23:06.396Z,94115.03
2023-05-14T00:25:33.053Z,94105.72
2023-05-14T00:27:59.794Z,94105.28
2023-05-14T00:30:26.575Z,94103.31
2023-05-14T00:32:53.319Z,94103.75
2023-05-14T00:35:21.635Z,94103.94
2023-05-14T00:37:48.668Z,94100.59
2023-05-14T00:40:15.469Z,94093.03
2023-05-14T00:42:42.314Z,94098.28
2023-05-14T00:45:09.429Z,94096.38
2023-05-14T00:47:36.616Z,94091.56
2023-05-14T00:50:04.283Z,94099.34
2023-05-14T00:52:32.233Z,94100.69
2023-05-14T00:54:59.438Z,94099.09
2023-05-14T00:57:26.154Z,94107.25
2023-05-14T00:59:53.173Z,94094.13
2023-05-14T01:02:20.009Z,94091.50
2023-05-14T01:04:46.869Z,94082.78
2023-05-14T01:07:25.871Z,94099.28
2023-05-14T01:10:01.677Z,94094.69
2023-05-14T01:12:31.329Z,94102.09
2023-05-14T01:15:21.725Z,94111.44
2023-05-14T01:18:00.603Z,94102.50
2023-05-14T01:20:27.578Z,94111.66
2023-05-14T01:22:54.345Z,94099.41
2023-05-14T01:25:21.086Z,94092.31
2023-05-14T01:27:50.702Z,94096.88
2023-05-14T01:30:30.068Z,94092.31
2023-05-14T01:33:00.601Z,94081.97
2023-05-14T01:35:28.871Z,94074.53
2023-05-14T01:38:01.320Z,94084.16
2023-05-14T01:40:28.400Z,94079.19
2023-05-14T01:42:55.302Z,94073.06
2023-05-14T01:45:22.678Z,94079.06
2023-05-14T01:47:49.719Z,94061.22
2023-05-14T01:50:16.895Z,94062.59
2023-05-14T01:52:43.801Z,94070.44
2023-05-14T01:55:10.873Z,94080.19
2023-05-14T01:57:37.655Z,94078.59
2023-05-14T02:00:04.853Z,94060.50
2023-05-14T02:02:31.770Z,94058.13
2023-05-14T02:04:58.568Z,94053.13
2023-05-14T02:07:25.598Z,94057.13
2023-05-14T02:09:52.352Z,94057.16
2023-05-14T02:12:19.227Z,94043.25
2023-05-14T02:14:46.026Z,94056.97
2023-05-14T02:17:15.950Z,94055.97
2023-05-14T02:19:42.735Z,94049.22
2023-05-14T02:22:09.431Z,94054.59
2023-05-14T02:24:36.287Z,94046.06
2023-05-14T02:27:03.074Z,94054.38
2023-05-14T02:29:29.920Z,94046.84
2023-05-14T02:31:57.075Z,94053.53
2023-05-14T02:34:24.095Z,94054.31
2023-05-14T02:36:50.792Z,94050.28
2023-05-14T02:39:17.537Z,94041.09
2023-05-14T02:41:44.272Z,94045.41
2023-05-14T02:44:11.000Z,94039.22
2023-05-14T02:46:37.678Z,94029.66
2023-05-14T02:49:04.461Z,94033.22
2023-05-14T02:51:31.153Z,94033.06
2023-05-14T02:53:57.929Z,94036.94
2023-05-14T02:56:24.682Z,94037.94
2023-05-14T02:58:51.372Z,94030.38
2023-05-14T03:01:18.972Z,94032.13
2023-05-14T03:03:46.103Z,94020.81
2023-05-14T03:06:13.214Z,94019.59
2023-05-14T03:08:39.992Z,94027.38
2023-05-14T03:11:06.998Z,94020.00
2023-05-14T03:13:33.727Z,94022.81
2023-05-14T03:16:00.447Z,94025.00
2023-05-14T03:18:28.531Z,94024.84
2023-05-14T03:20:55.235Z,94021.22
2023-05-14T03:23:22.063Z,94028.38
2023-05-14T03:25:48.827Z,94022.53
2023-05-14T03:28:15.671Z,94013.19
2023-05-14T03:30:42.427Z,94025.47
2023-05-14T03:33:09.227Z,94017.31
2023-05-14T03:35:35.942Z,93995.88
2023-05-14T03:38:02.645Z,94006.34
2023-05-14T03:40:29.346Z,94009.59
2023-05-14T03:42:56.250Z,94009.97
2023-05-14T03:45:22.989Z,94008.81
2023-05-14T03:47:49.752Z,94011.84
2023-05-14T03:50:16.563Z,94008.59
2023-05-14T03:52:43.750Z,94004.00
2023-05-14T03:55:10.607Z,94004.00
2023-05-14T03:57:37.403Z,94002.75
2023-05-14T04:00:05.067Z,94005.09
2023-05-14T04:02:31.976Z,93999.94
2023-05-14T04:04:58.699Z,93997.34
2023-05-14T04:07:25.471Z,94003.75
2023-05-14T04:09:52.226Z,93994.81
2023-05-14T04:12:19.361Z,93996.63
2023-05-14T04:14:46.024Z,93997.31
2023-05-14T04:17:12.785Z,93989.84
2023-05-14T04:19:40.502Z,94000.94
2023-05-14T04:22:07.120Z,93996.50
2023-05-14T04:24:33.716Z,93987.31
2023-05-14T04:27:00.565Z,93992.63
2023-05-14T04:29:27.367Z,93995.28
2023-05-14T04:31:53.981Z,94002.25
2023-05-14T04:34:20.676Z,93992.13
2023-05-14T04:36:47.360Z,93994.06
2023-05-14T04:39:13.927Z,93986.28
2023-05-14T04:41:40.935Z,93986.56
2023-05-14T04:44:07.671Z,93992.44
2023-05-14T04:46:34.388Z,93987.81
2023-05-14T04:49:01.066Z,93991.34
2023-05-14T04:51:28.004Z,93994.97
2023-05-14T04:53:55.854Z,93991.19
2023-05-14T04:56:22.519Z,93994.41
2023-05-14T04:58:49.120Z,93999.19
2023-05-14T05:01:15.873Z,93992.41
2023-05-14T05:03:42.553Z,93996.13
2023-05-14T05:06:09.152Z,93984.91
2023-05-14T05:08:36.792Z,93978.28
2023-05-14T05:11:03.504Z,93974.44
2023-05-14T05:13:30.119Z,93966.25
2023-05-14T05:15:56.848Z,93980.44
2023-05-14T05:18:23.499Z,93970.41
2023-05-14T05:20:50.149Z,93968.44
2023-05-14T05:23:16.899Z,93978.34
2023-05-14T05:25:43.561Z,93968.63
2023-05-14T05:28:10.140Z,93970.28
2023-05-14T05:30:36.826Z,93978.84
2023-05-14T05:33:03.769Z,93973.22
2023-05-14T05:35:30.415Z,93976.00
2023-05-14T05:37:59.846Z,93974.59
2023-05-14T05:40:28.173Z,93979.16
2023-05-14T05:42:54.878Z,93982.66
2023-05-14T05:45:21.723Z,93981.44
2023-05-14T05:47:48.429Z,93969.97
2023-05-14T05:50:15.123Z,93969.75
2023-05-14T05:52:41.718Z,93971.47
2023-05-14T05:55:08.792Z,93961.81
2023-05-14T05:57:35.431Z,93962.53
2023-05-14T06:00:12.461Z,93968.88
2023-05-14T06:02:40.120Z,93974.06
2023-05-14T06:05:08.132Z,93978.69
2023-05-14T06:07:34.836Z,93981.44
2023-05-14T06:10:01.582Z,93975.94
2023-05-14T06:12:28.294Z,93967.75
2023-05-14T06:14:55.782Z,93982.38
2023-05-14T06:17:22.419Z,93978.59
2023-05-14T06:19:48.988Z,93966.81
2023-05-14T06:22:15.638Z,93969.28
2023-05-14T06:24:42.233Z,93970.84
2023-05-14T06:27:10.702Z,93962.78
2023-05-14T06:29:37.909Z,93960.81
2023-05-14T06:32:04.982Z,93957.81
2023-05-14T06:34:31.874Z,93950.16
2023-05-14T06:36:58.607Z,93937.00
2023-05-14T06:39:25.664Z,93946.41
2023-05-14T06:41:52.325Z,93940.75
2023-05-14T06:44:19.714Z,93931.19
2023-05-14T06:46:46.389Z,93921.56
2023-05-14T06:49:13.097Z,93917.13
2023-05-14T06:51:40.786Z,93910.94
2023-05-14T06:54:07.580Z,93914.56
2023-05-14T06:56:34.758Z,93911.53
2023-05-14T06:59:01.364Z,93911.16
2023-05-14T07:01:28.154Z,93905.53
2023-05-14T07:03:54.867Z,93903.16
2023-05-14T07:06:21.892Z,93895.81
2023-05-14T07:08:48.487Z,93897.28
2023-05-14T07:11:15.646Z,93897.06
2023-05-14T07:13:43.103Z,93895.91
2023-05-14T07:16:10.469Z,93890.25
2023-05-14T07:18:37.495Z,93879.50
2023-05-14T07:21:07.009Z,93895.63
2023-05-14T07:23:36.305Z,93898.31
2023-05-14T07:26:03.367Z,93887.38
2023-05-14T07:28:30.077Z,93881.78
2023-05-14T07:30:56.841Z,93884.72
2023-05-14T07:33:24.097Z,93881.72
2023-05-14T07:35:50.997Z,93874.66
2023-05-14T07:38:17.713Z,93885.84
2023-05-14T07:40:44.413Z,93884.50
2023-05-14T07:43:11.308Z,93885.31
2023-05-14T07:45:39.302Z,93878.72
2023-05-14T07:48:06.211Z,93880.53
2023-05-14T07:50:32.961Z,93878.16
2023-05-14T07:52:59.680Z,93878.97
2023-05-14T07:55:26.412Z,93864.81
2023-05-14T07:57:53.173Z,93868.53
2023-05-14T08:00:20.130Z,93863.78
2023-05-14T08:02:47.043Z,93860.50
2023-05-14T08:05:13.764Z,93862.13
2023-05-14T08:07:41.458Z,93862.91
2023-05-14T08:10:08.680Z,93855.31
2023-05-14T08:12:35.387Z,93855.59
2023-05-14T08:15:02.449Z,93850.47
2023-05-14T08:17:29.113Z,93847.16
2023-05-14T08:19:55.919Z,93830.94
2023-05-14T08:22:22.552Z,93847.22
2023-05-14T08:24:49.160Z,93841.09
2023-05-14T08:27:16.736Z,93834.69
2023-05-14T08:29:43.488Z,93838.63
2023-05-14T08:32:22.156Z,93828.72
2023-05-14T08:34:49.800Z,93833.53
2023-05-14T08:37:16.452Z,93824.28
2023-05-14T08:39:43.077Z,93836.78
2023-05-14T08:42:12.862Z,93833.72
2023-05-14T08:44:44.084Z,93827.97
2023-05-14T08:47:11.762Z,93827.69
2023-05-14T08:49:43.112Z,93820.88
2023-05-14T08:52:10.237Z,93820.13
2023-05-14T08:54:37.007Z,93801.75
2023-05-14T08:57:04.746Z,93809.41
2023-05-14T08:59:31.925Z,93805.78
2023-05-14T09:02:01.964Z,93808.81
2023-05-14T09:04:29.788Z,93804.91
2023-05-14T09:06:56.427Z,93804.22
2023-05-14T09:09:23.670Z,93807.28
2023-05-14T09:11:51.767Z,93814.72
2023-05-14T09:14:18.915Z,93803.38
2023-05-14T09:16:47.837Z,93811.19
2023-05-14T09:19:15.955Z,93814.84
2023-05-14T09:21:45.727Z,93809.56
2023-05-14T09:24:26.395Z,93812.41
2023-05-14T09:26:54.821Z,93808.44
2023-05-14T09:29:21.546Z,93806.06
2023-05-14T09:31:50.594Z,93805.00
2023-05-14T09:34:34.022Z,93807.88
2023-05-14T09:37:09.257Z,93803.56
2023-05-14T09:39:37.289Z,93795.66
2023-05-14T09:42:04.390Z,93795.03
2023-05-14T09:44:31.947Z,93793.13
2023-05-14T09:46:58.719Z,93792.72
2023-05-14T09:49:25.510Z,93798.31
2023-05-14T09:51:52.337Z,93795.47
2023-05-14T09:54:19.063Z,93798.72
2023-05-14T09:56:45.820Z,93796.69
2023-05-14T09:59:12.501Z,93800.00
2023-05-14T10:01:39.638Z,93798.41
2023-05-14T10:04:07.882Z,93802.22
2023-05-14T10:06:38.026Z,93799.06
2023-05-14T10:09:13.144Z,93805.41
2023-05-14T10:11:43.076Z,93810.75
2023-05-14T10:14:27.390Z,93796.44
2023-05-14T10:16:56.582Z,93796.75
2023-05-14T10:19:25.674Z,93791.41
2023-05-14T10:22:04.559Z,93798.22
2023-05-14T10:24:31.688Z,93792.97
2023-05-14T10:26:58.962Z,93797.16
2023-05-14T10:29:34.156Z,93787.97
2023-05-14T10:32:04.977Z,93786.91
2023-05-14T10:34:43.853Z,93784.91
2023-05-14T10:37:22.045Z,93783.06
2023-05-14T10:40:02.050Z,93779.31
2023-05-14T10:42:43.593Z,93777.78
2023-05-14T10:45:14.459Z,93776.34
2023-05-14T10:47:46.054Z,93772.09
2023-05-14T10:50:14.691Z,93772.63
2023-05-14T10:52:43.546Z,93761.28
2023-05-14T10:55:13.714Z,93748.84
2023-05-14T10:57:42.898Z,93759.97
2023-05-14T11:00:10.877Z,93751.88
2023-05-14T11:02:39.221Z,93754.78
2023-05-14T11:05:13.770Z,93751.59
2023-05-14T11:07:47.630Z,93761.34
2023-05-14T11:10:16.990Z,93745.91
2023-05-14T11:12:45.371Z,93749.75
2023-05-14T11:15:14.310Z,93752.59
2023-05-14T11:17:42.291Z,93739.91
2023-05-14T11:20:10.071Z,93735.53
2023-05-14T11:22:37.584Z,93736.31
2023-05-14T11:25:05.333Z,93737.75
2023-05-14T11:27:34.453Z,93728.28
2023-05-14T11:30:01.593Z,93734.19
2023-05-14T11:32:28.382Z,93735.03
2023-05-14T11:34:55.041Z,93724.63
2023-05-14T11:37:21.727Z,93724.72
2023-05-14T11:39:50.728Z,93728.44
2023-05-14T11:42:18.682Z,93716.78
2023-05-14T11:44:52.540Z,93704.47
2023-05-14T11:47:20.745Z,93704.28
2023-05-14T11:49:48.736Z,93705.88
2023-05-14T11:52:16.273Z,93706.44
2023-05-14T11:54:44.357Z,93711.38
2023-05-14T11:57:13.226Z,93707.72
2023-05-14T11:59:40.574Z,93698.56
2023-05-14T12:02:12.267Z,93692.56
2023-05-14T12:04:39.590Z,93696.50
2023-05-14T12:07:14.908Z,93679.06
2023-05-14T12:09:49.770Z,93685.94
2023-05-14T12:12:25.759Z,93681.28
2023-05-14T12:14:53.030Z,93669.03
2023-05-14T12:17:21.782Z,93661.81
2023-05-14T12:19:50.842Z,93678.72
2023-05-14T12:22:21.785Z,93675.09
2023-05-14T12:24:59.224Z,93672.34
2023-05-14T12:27:27.732Z,93662.22
2023-05-14T12:32:35.830Z,93655.88
2023-05-14T12:35:02.588Z,93656.84
2023-05-14T12:37:31.127Z,93654.94
2023-05-14T12:39:57.986Z,93647.06
2023-05-14T12:42:24.709Z,93646.50
2023-05-14T12:44:51.335Z,93648.66
2023-05-14T12:47:18.346Z,93644.59
2023-05-14T12:49:45.049Z,93638.13
2023-05-14T12:54:43.441Z,93637.34
2023-05-14T12:57:10.361Z,93643.84
2023-05-14T12:59:37.112Z,93648.78
2023-05-14T13:02:03.850Z,93642.38
2023-05-14T13:04:30.554Z,93639.31
2023-05-14T13:06:57.259Z,93634.09
2023-05-14T13:09:23.941Z,93627.44
2023-05-14T13:11:50.668Z,93630.06
2023-05-14T13:14:18.383Z,93618.94
2023-05-14T13:16:46.808Z,93631.16
2023-05-14T13:19:13.579Z,93618.72
2023-05-14T13:21:40.439Z,93622.91
2023-05-14T13:24:07.335Z,93633.59
2023-05-14T13:26:34.056Z,93620.22
2023-05-14T13:29:00.779Z,93616.09
2023-05-14T13:31:27.647Z,93616.66
2023-05-14T13:33:54.562Z,93634.50
2023-05-14T13:36:21.507Z,93631.16
2023-05-14T13:38:48.560Z,93595.91
2023-05-14T13:41:15.342Z,93607.44
2023-05-14T13:43:42.175Z,93613.97
2023-05-14T13:46:09.016Z,93614.47
2023-05-14T13:48:37.303Z,93605.84
2023-05-14T13:51:04.065Z,93606.16
2023-05-14T13:53:30.954Z,93610.34
2023-05-14T13:55:58.667Z,93608.81
2023-05-14T13:58:25.834Z,93603.09
2023-05-14T14:00:53.425Z,93600.22
2023-05-14T14:03:20.377Z,93600.22
2023-05-14T14:05:47.106Z,93602.81
2023-05-14T14:10:48.617Z,93602.16
2023-05-14T14:13:15.321Z,93604.28
2023-05-14T14:15:42.658Z,93592.28
2023-05-14T14:18:09.429Z,93595.91
2023-05-14T14:20:36.473Z,93595.03
2023-05-14T14:23:03.127Z,93595.78
2023-05-14T14:25:29.877Z,93601.16
2023-05-14T14:27:56.654Z,93593.97
2023-05-14T14:30:23.459Z,93593.97
2023-05-14T14:32:50.855Z,93601.16
2023-05-14T14:35:18.981Z,93598.91
2023-05-14T14:37:49.379Z,93603.09
2023-05-14T14:40:17.195Z,93591.00
2023-05-14T14:42:44.780Z,93595.66
2023-05-14T14:45:12.500Z,93596.03
2023-05-14T14:47:44.147Z,93592.94
2023-05-14T14:50:11.392Z,93590.09
2023-05-14T14:52:38.398Z,93590.84
2023-05-14T14:55:05.706Z,93582.53
2023-05-14T14:57:32.560Z,93574.34
2023-05-14T15:00:01.423Z,93589.72
2023-05-14T15:02:29.149Z,93591.72
2023-05-14T15:04:55.988Z,93586.22
2023-05-14T15:07:22.898Z,93571.56
2023-05-14T15:09:49.608Z,93572.53
2023-05-14T15:12:17.198Z,93573.53
2023-05-14T15:14:43.969Z,93565.97
2023-05-14T15:17:10.857Z,93580.56
2023-05-14T15:19:37.472Z,93568.03
2023-05-14T15:22:04.776Z,93564.84
2023-05-14T15:24:31.639Z,93578.66
2023-05-14T15:26:58.300Z,93569.00
2023-05-14T15:29:24.938Z,93571.63
2023-05-14T15:31:51.791Z,93571.53
2023-05-14T15:34:18.453Z,93573.44
2023-05-14T15:36:45.057Z,93571.41
2023-05-14T15:39:12.302Z,93578.69
2023-05-14T15:41:38.965Z,93572.09
2023-05-14T15:44:05.732Z,93567.69
2023-05-14T15:46:32.748Z,93572.09
2023-05-14T15:48:59.528Z,93578.22
2023-05-14T15:51:26.204Z,93583.13
2023-05-14T15:53:54.307Z,93580.03
2023-05-14T15:56:22.406Z,93576.88
2023-05-14T15:58:49.666Z,93567.69
2023-05-14T16:01:16.434Z,93573.84
2023-05-14T16:03:43.273Z,93573.78
2023-05-14T16:06:11.232Z,93570.41
2023-05-14T16:08:38.435Z,93572.63
2023-05-14T16:11:06.262Z,93571.16
2023-05-14T16:13:33.152Z,93568.03
2023-05-14T16:16:00.050Z,93558.34
2023-05-14T16:18:26.994Z,93568.34
2023-05-14T16:20:53.763Z,93574.31
2023-05-14T16:23:20.563Z,93563.31
2023-05-14T16:25:47.278Z,93568.16
2023-05-14T16:28:14.197Z,93555.88
2023-05-14T16:30:40.989Z,93561.88
2023-05-14T16:33:07.753Z,93561.78
2023-05-14T16:35:34.596Z,93561.19
2023-05-14T16:38:01.843Z,93545.50
2023-05-14T16:40:28.566Z,93555.97
2023-05-14T16:42:55.245Z,93543.91
2023-05-14T16:45:22.145Z,93547.88
2023-05-14T16:47:48.962Z,93548.41
2023-05-14T16:50:16.076Z,93541.41
2023-05-14T16:52:43.007Z,93540.13
2023-05-14T16:55:09.862Z,93545.03
2023-05-14T16:57:36.472Z,93545.56
2023-05-14T17:00:06.221Z,93531.69
2023-05-14T17:02:33.889Z,93539.03
2023-05-14T17:05:00.733Z,93535.09
2023-05-14T17:07:27.660Z,93525.91
2023-05-14T17:09:54.415Z,93533.19
2023-05-14T17:12:21.536Z,93523.44
2023-05-14T17:14:48.265Z,93524.09
2023-05-14T17:17:14.949Z,93533.88
2023-05-14T17:19:42.423Z,93521.09
2023-05-14T17:22:09.178Z,93527.63
2023-05-14T17:24:36.652Z,93526.22
2023-05-14T17:27:03.485Z,93529.47
2023-05-14T17:29:30.214Z,93528.03
2023-05-14T17:31:57.115Z,93531.66
2023-05-14T17:34:24.144Z,93532.63
2023-05-14T17:36:50.901Z,93531.66
2023-05-14T17:39:17.539Z,93528.28
2023-05-14T17:41:44.252Z,93531.13
2023-05-14T17:44:12.825Z,93530.41
2023-05-14T17:46:40.086Z,93527.91
2023-05-14T17:49:06.689Z,93527.91
2023-05-14T17:51:33.454Z,93527.66
2023-05-14T17:54:00.117Z,93528.50
2023-05-14T17:56:26.982Z,93529.25
2023-05-14T17:58:53.565Z,93531.53
2023-05-14T18:01:20.303Z,93532.78
2023-05-14T18:03:47.622Z,93534.28
2023-05-14T18:06:15.130Z,93524.91
2023-05-14T18:08:41.889Z,93531.22
2023-05-14T18:11:08.663Z,93527.25
2023-05-14T18:13:35.463Z,93520.97
2023-05-14T18:16:02.300Z,93529.88
2023-05-14T18:18:29.018Z,93525.69
2023-05-14T18:20:55.661Z,93531.13
2023-05-14T18:23:22.496Z,93527.25
2023-05-14T18:25:49.235Z,93533.25
2023-05-14T18:28:16.063Z,93533.38
2023-05-14T18:30:43.759Z,93534.19
2023-05-14T18:33:10.654Z,93530.22
2023-05-14T18:35:37.521Z,93538.59
2023-05-14T18:38:04.433Z,93535.63
2023-05-14T18:40:31.099Z,93535.94
2023-05-14T18:42:58.112Z,93536.25
2023-05-14T18:45:25.063Z,93536.31
2023-05-14T18:47:52.160Z,93540.41
2023-05-14T18:50:19.162Z,93538.22
2023-05-14T18:52:45.821Z,93535.28
2023-05-14T18:55:13.020Z,93530.22
2023-05-14T18:57:39.731Z,93540.63
2023-05-14T19:00:07.362Z,93529.75
2023-05-14T19:02:34.051Z,93534.97
2023-05-14T19:05:01.433Z,93533.56
2023-05-14T19:07:30.337Z,93535.84
2023-05-14T19:09:57.188Z,93541.03
2023-05-14T19:12:23.909Z,93544.53
2023-05-14T19:14:50.610Z,93541.88
2023-05-14T19:17:18.604Z,93541.94
2023-05-14T19:19:47.109Z,93544.78
2023-05-14T19:22:13.935Z,93548.50
2023-05-14T19:24:40.767Z,93541.34
2023-05-14T19:27:08.002Z,93543.63
2023-05-14T19:29:36.890Z,93550.31
2023-05-14T19:32:04.748Z,93546.91
2023-05-14T19:34:31.655Z,93548.72
2023-05-14T19:36:58.388Z,93548.16
2023-05-14T19:39:24.949Z,93545.72
2023-05-14T19:41:51.707Z,93549.91
2023-05-14T19:44:18.521Z,93547.06
2023-05-14T19:46:45.356Z,93545.97
2023-05-14T19:49:12.891Z,93538.25
2023-05-14T19:51:39.714Z,93545.56
2023-05-14T19:54:06.888Z,93532.56
2023-05-14T19:56:33.693Z,93534.72
2023-05-14T19:59:00.410Z,93531.78
2023-05-14T20:01:27.605Z,93526.75
2023-05-14T20:03:54.251Z,93532.13
2023-05-14T20:06:21.259Z,93527.06
2023-05-14T20:08:47.998Z,93524.72
2023-05-14T20:11:15.771Z,93520.31
2023-05-14T20:13:42.584Z,93530.84
2023-05-14T20:16:09.228Z,93523.75
2023-05-14T20:18:36.330Z,93529.41
2023-05-14T20:21:03.092Z,93529.06
2023-05-14T20:23:29.828Z,93532.03
2023-05-14T20:25:56.795Z,93521.06
2023-05-14T20:28:23.447Z,93518.94
2023-05-14T20:30:50.146Z,93515.56
2023-05-14T20:33:17.015Z,93521.75
2023-05-14T20:35:44.306Z,93510.38
2023-05-14T20:38:12.943Z,93511.72
2023-05-14T20:40:40.024Z,93508.09
2023-05-14T20:43:06.718Z,93505.84
2023-05-14T20:45:33.358Z,93512.09
2023-05-14T20:48:00.093Z,93503.38
2023-05-14T20:50:27.971Z,93510.47
2023-05-14T20:52:55.403Z,93504.84
2023-05-14T20:55:22.530Z,93504.78
2023-05-14T20:57:49.772Z,93502.84
2023-05-14T21:00:16.852Z,93502.06
2023-05-14T21:02:43.617Z,93504.09
2023-05-14T21:05:10.544Z,93496.88
2023-05-14T21:07:37.474Z,93487.75
2023-05-14T21:10:04.709Z,93494.75
2023-05-14T21:12:31.432Z,93490.72
2023-05-14T21:14:58.004Z,93491.97
2023-05-14T21:17:24.743Z,93487.09
2023-05-14T21:19:51.337Z,93480.34
2023-05-14T21:22:18.075Z,93485.06
2023-05-14T21:24:44.669Z,93477.19
2023-05-14T21:27:11.526Z,93480.66
2023-05-14T21:29:38.630Z,93481.91
2023-05-14T21:32:05.913Z,93477.97
2023-05-14T21:34:32.834Z,93478.78
2023-05-14T21:36:59.493Z,93480.38
2023-05-14T21:39:26.112Z,93487.50
2023-05-14T21:41:52.694Z,93486.41
2023-05-14T21:44:19.302Z,93467.72
2023-05-14T21:46:45.959Z,93483.28
2023-05-14T21:49:12.609Z,93484.16
2023-05-14T21:51:39.198Z,93479.75
2023-05-14T21:54:06.821Z,93483.25
2023-05-14T21:56:35.455Z,93476.09
2023-05-14T21:59:02.078Z,93473.59
2023-05-14T22:01:28.797Z,93472.47
2023-05-14T22:03:57.119Z,93472.59
2023-05-14T22:06:24.488Z,93469.75
2023-05-14T22:08:51.259Z,93464.81
2023-05-14T22:11:17.916Z,93462.66
2023-05-14T22:13:44.609Z,93471.94
2023-05-14T22:16:14.045Z,93462.94
2023-05-14T22:18:41.099Z,93460.44
2023-05-14T22:21:07.922Z,93468.63
2023-05-14T22:23:34.652Z,93462.22
2023-05-14T22:26:01.380Z,93457.03
2023-05-14T22:28:28.011Z,93469.88
2023-05-14T22:30:56.533Z,93469.03
2023-05-14T22:33:23.313Z,93462.25
2023-05-14T22:35:49.967Z,93454.16
2023-05-14T22:38:16.592Z,93453.13
2023-05-14T22:40:43.253Z,93453.53
2023-05-14T22:43:09.901Z,93446.78
2023-05-14T22:45:36.493Z,93451.66
2023-05-14T22:48:03.158Z,93442.84
2023-05-14T22:50:29.825Z,93452.56
2023-05-14T22:52:56.420Z,93450.66
2023-05-14T22:55:23.123Z,93435.81
2023-05-14T22:57:49.986Z,93432.66
2023-05-14T23:00:16.738Z,93440.44
2023-05-14T23:02:43.514Z,93432.94
2023-05-14T23:05:10.395Z,93427.88
2023-05-14T23:07:37.131Z,93437.91
2023-05-14T23:10:04.195Z,93437.63
2023-05-14T23:12:30.919Z,93435.13
2023-05-14T23:14:59.270Z,93418.13
2023-05-14T23:17:26.295Z,93423.97
2023-05-14T23:19:53.222Z,93419.47
2023-05-14T23:22:20.398Z,93415.88
2023-05-14T23:24:47.156Z,93411.25
2023-05-14T23:27:13.860Z,93412.88
2023-05-14T23:29:40.674Z,93412.16
2023-05-14T23:32:08.447Z,93403.91
2023-05-14T23:34:35.522Z,93403.13
2023-05-14T23:37:02.337Z,93409.66
2023-05-14T23:39:29.036Z,93401.31
2023-05-14T23:41:55.816Z,93396.38
2023-05-14T23:44:22.672Z,93401.31
2023-05-14T23:46:49.596Z,93404.38
2023-05-14T23:49:16.395Z,93398.63
2023-05-14T23:51:43.167Z,93398.16
2023-05-14T23:54:09.971Z,93400.34
2023-05-14T23:56:36.762Z,93399.78
2023-05-14T23:59:03.790Z,93395.84
